Corley, West Virginia
Current Conditions -  °F | °C
As of 10:15 AM on Monday 24 Nov 2014 (Local Time) from KW22 Reporting Station
Clear Clear  
Wind Chill: 66°   Ceiling: Unl
Heat Index: 66°   Visibility: 10mi
Dew Point: 45°   Wind: 23mph
Humidity: 46%   Direction: 190°S
Pressure: 29.54"   Gusts: 32mph
Location:  38.744°N, 80.5968°W
Report Text: KW22 241515Z AUTO 19020G28KT 10SM CLR 19/07 A2954 RMK AO2
Loading
Personal Weather Stations






























Interactive Weather Map New forecast layout! Learn more

10-Day Weather Forecast

Advertisements
Track Severe Weather on mobile